Flight Track Log - Related Links

Times and Time Zones

All times are in EDT time to prevent confusion due to time zone crossing. See the FFT535 flight status page for this flight to view local times or setup timezone preferences in your user account.

Time Position Orientation Groundspeed Altitude Reporting Facility
EDT Latitude Longitude Course Direction KTS MPH feet Rate Location/Type
Tue 08:08:11 PM 41.8014 -87.7378 266° West 98 113 2,200  Level Chicago Center
Tue 08:09:14 PM 41.7978 -87.8000 266° West 202 232 3,300 1,296 Climbing Chicago Center
Tue 08:10:16 PM 41.7825 -87.9014 259° West 260 299 4,900 1,548 Climbing Chicago Center
Tue 08:11:18 PM 41.7833 -88.0053 271° West 278 320 6,500 2,565 Climbing Chicago Center
Tue 08:12:20 PM 41.7853 -88.1056 272° West 252 290 10,200 2,688 Climbing Chicago Center
Tue 08:13:23 PM 41.7878 -88.2083 272° West 278 320 12,100 1,742 Climbing Chicago Center
Tue 08:14:24 PM 41.7894 -88.3292 271° West 325 374 13,800 2,049 Climbing Chicago Center
Tue 08:15:26 PM 41.7911 -88.4681 271° West 347 399 16,300 2,419 Climbing Chicago Center
Tue 08:16:28 PM 41.7933 -88.5892 271° West 351 404 18,800 2,226 Climbing Chicago Center
Tue 08:17:30 PM 41.7947 -88.7172 271° West 347 399 20,900 1,984 Climbing Chicago Center
Tue 08:18:32 PM 41.8003 -88.8747 273° West 352 405 22,900 1,728 Climbing Chicago Center
Tue 08:19:35 PM 41.8092 -89.0081 275° West 361 415 24,500 1,344 Climbing Chicago Center
Tue 08:20:37 PM 41.8175 -89.1467 275° West 370 426 25,700 1,258 Climbing Chicago Center
Tue 08:21:39 PM 41.8256 -89.2883 274° West 381 438 27,100 1,306 Climbing Chicago Center
Tue 08:22:41 PM 41.8353 -89.4294 275° West 381 438 28,400 1,258 Climbing Chicago Center
Tue 08:23:43 PM 41.8428 -89.5739 274° West 387 445 29,700 1,452 Climbing Chicago Center
Tue 08:24:45 PM 41.8478 -89.7425 272° West 380 437 31,400 1,548 Climbing Chicago Center
Tue 08:25:47 PM 41.8350 -89.8783 263° West 369 425 32,900 1,306 Climbing Chicago Center
Tue 08:26:49 PM 41.8222 -89.9972 262° West 363 418 34,100 1,210 Climbing Chicago Center
Tue 08:27:51 PM 41.8067 -90.1506 262° West 352 405 35,400 1,258 Climbing Chicago Center
Tue 08:28:53 PM 41.7928 -90.2756 262° West 348 400 36,700 774 Climbing Chicago Center
Tue 08:29:55 PM 41.7794 -90.4003 262° West 341 392 37,000 145 Climbing Chicago Center
Tue 08:30:57 PM 41.7653 -90.5300 262° West 349 402 37,000  Level Chicago Center
Tue 08:31:59 PM 41.7492 -90.6656 261° West 361 415 37,000  Level Chicago Center
Tue 08:33:01 PM 41.7314 -90.8328 262° West 376 433 37,000  Level Chicago Center
Tue 08:34:03 PM 41.7158 -90.9717 262° West 378 435 37,000  Level Chicago Center
Tue 08:35:05 PM 41.6994 -91.1097 261° West 378 435 37,000  Level Chicago Center
Tue 08:36:07 PM 41.6839 -91.2489 262° West 380 437 37,000  Level Chicago Center
Tue 08:37:09 PM 41.6675 -91.3867 261° West 378 435 37,000  Level Chicago Center
Tue 08:38:11 PM 41.6517 -91.5281 262° West 382 440 37,000  Level Chicago Center
Tue 08:39:13 PM 41.6322 -91.6950 261° West 382 440 37,000  Level Chicago Center
Tue 08:40:15 PM 41.6122 -91.8353 259° West 384 442 37,000  Level Chicago Center
Tue 08:41:17 PM 41.5714 -91.9664 247° West 385 443 37,000  Level Chicago Center
Tue 08:42:19 PM 41.5336 -92.0978 249° West 382 440 37,000  Level Chicago Center
Tue 08:43:21 PM 41.4950 -92.2306 249° West 385 443 37,000  Level Chicago Center
Tue 08:44:23 PM 41.4497 -92.3881 249° West 380 437 37,000 242 Level Chicago Center
Tue 08:45:25 PM 41.4172 -92.5028 249° West 384 442 37,500 484 Climbing Chicago Center
Tue 08:46:27 PM 41.3931 -92.6633 259° West 382 440 38,000 303 Climbing Chicago Center
Tue 08:47:04 PM 41.3894 -92.7486 267° West 388 447 38,000  Level Minneapolis Center
Tue 08:48:06 PM 41.3842 -92.8931 267° West 388 447 38,000  Level Minneapolis Center
Tue 08:49:08 PM 41.3789 -93.0339 267° West 388 447 38,000  Level Minneapolis Center
Tue 08:50:11 PM 41.3739 -93.1750 267° West 388 447 38,000  Level Minneapolis Center
Tue 08:51:13 PM 41.3675 -93.3472 267° West 388 447 38,000  Level Minneapolis Center
Tue 08:52:15 PM 41.3617 -93.4878 267° West 388 447 38,000  Level Minneapolis Center
Tue 08:53:17 PM 41.3553 -93.6292 267° West 388 447 38,000  Level Minneapolis Center
Tue 08:54:19 PM 41.3500 -93.7703 267° West 388 447 38,000  Level Minneapolis Center
Tue 08:55:21 PM 41.3436 -93.9122 267° West 388 447 38,000  Level Minneapolis Center
Tue 08:56:23 PM 41.3367 -94.0814 267° West 388 447 38,000  Level Minneapolis Center
Tue 08:57:25 PM 41.3297 -94.2211 266° West 388 447 38,000  Level Minneapolis Center
Tue 08:58:27 PM 41.3231 -94.3647 267° West 388 447 38,000  Level Minneapolis Center
Tue 08:59:30 PM 41.3161 -94.5089 266° West 388 447 38,000  Level Minneapolis Center
Tue 09:00:33 PM 41.3069 -94.6831 266° West 389 448 38,000  Level Minneapolis Center
Tue 09:01:35 PM 41.3000 -94.8292 266° West 393 452 38,000  Level Minneapolis Center
Tue 09:02:37 PM 41.2928 -94.9747 266° West 393 452 38,000  Level Minneapolis Center
Tue 09:03:39 PM 41.2847 -95.1214 266° West 395 455 38,000  Level Minneapolis Center
Tue 09:04:41 PM 41.2769 -95.2672 266° West 395 455 38,000  Level Minneapolis Center
Tue 09:05:43 PM 41.2675 -95.4153 265° West 397 457 38,000  Level Minneapolis Center
Tue 09:06:45 PM 41.2586 -95.5636 265° West 401 461 38,000  Level Minneapolis Center
Tue 09:07:47 PM 41.2497 -95.7342 266° West 400 460 38,000  Level Minneapolis Center
Tue 09:08:49 PM 41.2411 -95.8819 266° West 400 460 38,000  Level Minneapolis Center
Tue 09:09:51 PM 41.2319 -96.0283 265° West 400 460 38,000  Level Minneapolis Center
Tue 09:10:53 PM 41.2231 -96.1769 266° West 400 460 38,000  Level Minneapolis Center
Tue 09:11:55 PM 41.2119 -96.3394 265° West 400 460 38,000  Level Minneapolis Center
Tue 09:12:57 PM 41.2025 -96.4864 265° West 400 460 38,000  Level Minneapolis Center
Tue 09:13:59 PM 41.1914 -96.6344 264° West 400 460 38,000  Level Minneapolis Center
Tue 09:15:01 PM 41.1817 -96.7814 265° West 400 460 38,000  Level Minneapolis Center
Tue 09:16:03 PM 41.1714 -96.9325 265° West 407 468 38,000  Level Minneapolis Center
Tue 09:17:05 PM 41.1578 -97.1103 264° West 407 468 38,000  Level Minneapolis Center
Tue 09:18:07 PM 41.1478 -97.2583 265° West 406 467 38,000  Level Minneapolis Center
Tue 09:19:09 PM 41.1364 -97.4194 265° West 405 466 38,000  Level Minneapolis Center
Tue 09:20:11 PM 41.1244 -97.5661 264° West 404 465 38,000  Level Minneapolis Center
Tue 09:21:13 PM 41.1139 -97.7136 265° West 404 465 38,000  Level Minneapolis Center
Tue 09:22:15 PM 41.1017 -97.8597 264° West 403 464 38,000  Level Minneapolis Center
Tue 09:23:17 PM 41.0903 -98.0081 264° West 403 464 38,000  Level Minneapolis Center
Tue 09:24:18 PM 41.0786 -98.1569 264° West 403 464 38,000  Level Minneapolis Center
Tue 09:25:20 PM 41.0664 -98.3044 264° West 403 464 38,000  Level Minneapolis Center
Tue 09:26:22 PM 41.0500 -98.4647 262° West 403 464 38,000  Level Minneapolis Center
Tue 09:27:24 PM 41.0336 -98.6111 262° West 403 464 38,000  Level Minneapolis Center
Tue 09:28:26 PM 41.0131 -98.7550 259° West 402 463 38,000  Level Minneapolis Center
Tue 09:29:28 PM 40.9933 -98.9003 260° West 402 463 38,000  Level Minneapolis Center
Tue 09:30:29 PM 40.9694 -99.0736 260° West 402 463 38,000  Level Minneapolis Center
Tue 09:31:31 PM 40.9497 -99.2175 260° West 402 463 38,000  Level Minneapolis Center
Tue 09:32:33 PM 40.9292 -99.3644 260° West 402 463 38,000  Level Minneapolis Center
Tue 09:33:34 PM 40.9089 -99.5094 260° West 402 463 38,000  Level Minneapolis Center
Tue 09:34:36 PM 40.8881 -99.6564 259° West 402 463 38,000  Level Minneapolis Center
Tue 09:35:38 PM 40.8664 -99.8028 259° West 402 463 38,000  Level Minneapolis Center
Tue 09:36:39 PM 40.8458 -99.9486 259° West 403 464 38,000  Level Minneapolis Center
Tue 09:37:41 PM 40.8203 -100.1236 259° West 403 464 38,000  Level Minneapolis Center
Tue 09:38:43 PM 40.7986 -100.2686 259° West 403 464 38,000  Level Minneapolis Center
Tue 09:39:44 PM 40.7772 -100.4139 259° West 403 464 38,000  Level Minneapolis Center
Tue 09:40:46 PM 40.7564 -100.5583 259° West 402 463 38,000  Level Minneapolis Center
Tue 09:42:12 PM 40.7233 -100.7614 258° West 402 463 38,000  Level Denver Center
Tue 09:43:14 PM 40.7014 -100.9028 258° West 403 464 38,000  Level Denver Center
Tue 09:44:14 PM 40.6794 -101.0422 258° West 403 464 38,000  Level Denver Center
Tue 09:45:16 PM 40.6542 -101.2044 258° West 403 464 38,000  Level Denver Center
Tue 09:46:18 PM 40.6319 -101.3422 258° West 403 464 38,000  Level Denver Center
Tue 09:47:20 PM 40.6058 -101.5042 258° West 404 465 38,000  Level Denver Center
Tue 09:48:20 PM 40.5842 -101.6422 258° West 404 465 38,000  Level Denver Center
Tue 09:49:24 PM 40.5581 -101.8022 258° West 402 463 38,000  Level Denver Center
Tue 09:50:24 PM 40.5347 -101.9403 258° West 403 464 38,000  Level Denver Center
Tue 09:51:28 PM 40.5089 -102.1031 258° West 405 466 38,000  Level Denver Center
Tue 09:52:28 PM 40.4853 -102.2392 257° West 404 465 38,000  Level Denver Center
Tue 09:53:31 PM 40.4622 -102.3769 258° West 404 465 38,000  Level Denver Center
Tue 09:54:33 PM 40.4336 -102.5361 257° West 404 465 38,000  Level Denver Center
Tue 09:55:35 PM 40.4114 -102.6719 258° West 403 464 38,000  Level Denver Center
Tue 09:56:37 PM 40.3886 -102.8147 258° West 404 465 38,000 -716 Level Denver Center
Tue 09:57:49 PM 40.3586 -102.9853 257° West 402 463 36,400 -2,373 Descending Denver Center
Tue 09:58:51 PM 40.3281 -103.1533 257° West 400 460 32,700 -3,524 Descending Denver Center
Tue 09:59:55 PM 40.3000 -103.3000 256° West 411 473 29,000 -2,952 Descending Denver Center
Tue 10:00:55 PM 40.2756 -103.4508 258° West 420 483 26,600 -2,419 Descending Denver Center
Tue 10:01:59 PM 40.2503 -103.5967 257° West 416 479 24,000 -2,177 Descending Denver Center
Tue 10:02:59 PM 40.2247 -103.7342 256° West 397 457 22,100 -1,500 Descending Denver Center
Tue 10:04:03 PM 40.1903 -103.8808 253° West 362 417 20,900 -1,597 Descending Denver Center
Tue 10:05:03 PM 40.1353 -103.9942 238° Southwest 365 420 18,800 -1,854 Descending Denver Center
Tue 10:06:06 PM 40.0842 -104.1033 239° Southwest 356 410 17,100 -1,597 Descending Denver Center
Tue 10:07:07 PM 40.0289 -104.2242 239° Southwest 355 409 15,500 -1,452 Descending Denver Center
Tue 10:08:10 PM 39.9764 -104.3369 239° Southwest 362 417 14,100 -1,248 Descending Denver Center
Tue 10:09:12 PM 39.9214 -104.4539 239° Southwest 354 407 12,900 -1,355 Descending Denver Center
Tue 10:10:14 PM 39.8528 -104.4992 207° Southwest 304 350 11,300 -1,140 Descending Denver Center
Tue 10:11:13 PM 39.7761 -104.5025 182° South 277 319 10,600 -1,230 Descending Denver Center
Tue 10:12:16 PM 39.7033 -104.5347 199° South 260 299 8,800 -1,476 Descending Denver Center
Tue 10:13:19 PM 39.7025 -104.6089 269° West 197 227 7,500 -912 Descending Denver Center
Tue 10:14:21 PM 39.7461 -104.6422 330° Northwest 180 207 6,900 -634 Descending Denver Center
Tue 10:15:22 PM 39.7892 -104.6422 360° North 141 162 6,200 -677 Descending Denver Center
Tue 10:16:25 PM 39.8256 -104.6417 North 135 155 5,500 -667 Descending Denver Center
Tue 10:18:00 PM 39.8500 -104.6667 341° North  Level FlightAware Approximate
Tue 10:25:00 PM 39.8617 -104.6732 341° North  Level Estimated
Tue 10:26:00 PM 39.8617 -104.6732 341° North  Level Estimated
Tue 10:27:00 PM 39.8617 -104.6732 341° North  Level Estimated

Login

Don't have an account? Register now (free) for customized features, flight alerts, and more!